Time;durP1;ratioP1;P1;durP2;ratioP2;P2;SDS_P1;SDS_P2;PMS_P1;PMS_P2;Temp;Humidity;BMP_temperature;BMP_pressure;BME280_temperature;BME280_humidity;BME280_pressure;Samples;Min_cycle;Max_cycle;Signal;HPM_P1;HPM_P2
2022/09/14 00:01:06;;;;;;;6.60;2.17;;;15.50;99.90;;;;;;5123528;28;20527;-70
2022/09/14 00:03:33;;;;;;;7.37;2.00;;;15.50;99.90;;;;;;5126104;28;20523;-70
2022/09/14 00:06:05;;;;;;;5.20;2.00;;;15.50;99.90;;;;;;5122853;28;20539;-72
2022/09/14 00:08:32;;;;;;;7.83;2.00;;;15.50;99.90;;;;;;5119269;28;20492;-70
2022/09/14 00:11:03;;;;;;;3.30;2.03;;;15.50;99.90;;;;;;5119170;28;20488;-70
2022/09/14 00:13:30;;;;;;;7.80;1.73;;;15.50;99.90;;;;;;5118482;28;20449;-71
2022/09/14 00:16:02;;;;;;;4.50;1.80;;;15.40;99.90;;;;;;5118490;28;20452;-71
2022/09/14 00:18:29;;;;;;;5.87;2.10;;;15.40;99.90;;;;;;5118293;28;20444;-71
2022/09/14 00:20:59;;;;;;;7.63;2.33;;;15.40;99.90;;;;;;5118191;28;20543;-71
2022/09/14 00:23:28;;;;;;;7.53;1.70;;;15.40;99.90;;;;;;5118081;28;20543;-71
2022/09/14 00:25:54;;;;;;;3.43;1.80;;;15.40;99.90;;;;;;5118513;28;20479;-71
2022/09/14 00:28:21;;;;;;;6.30;2.07;;;15.40;99.90;;;;;;5117882;28;20452;-71
2022/09/14 00:30:48;;;;;;;4.20;2.10;;;15.40;99.90;;;;;;5118099;28;20886;-71
2022/09/14 00:33:15;;;;;;;4.57;2.10;;;15.40;99.90;;;;;;5117746;28;20463;-71
2022/09/14 00:35:42;;;;;;;4.83;2.33;;;15.40;99.90;;;;;;5118229;28;20539;-71
2022/09/14 00:38:08;;;;;;;5.23;2.03;;;15.40;99.90;;;;;;5117966;28;20462;-71
2022/09/14 00:40:37;;;;;;;8.80;2.10;;;15.30;99.90;;;;;;5117509;28;20456;-71
2022/09/14 00:43:13;;;;;;;6.60;2.60;;;15.30;99.90;;;;;;5117771;28;20456;-71
2022/09/14 00:45:40;;;;;;;4.80;1.93;;;15.30;99.90;;;;;;5117856;28;20441;-71
2022/09/14 00:48:07;;;;;;;7.30;1.80;;;15.30;99.90;;;;;;5117873;28;20492;-71
2022/09/14 00:50:34;;;;;;;5.83;1.67;;;15.20;99.90;;;;;;5117666;28;20789;-71
2022/09/14 00:53:01;;;;;;;7.97;2.00;;;15.20;99.90;;;;;;5117630;28;20847;-71
2022/09/14 00:55:28;;;;;;;4.03;1.67;;;15.20;99.90;;;;;;5117554;28;20456;-71
2022/09/14 00:57:56;;;;;;;3.03;1.27;;;15.20;99.90;;;;;;5117408;28;20488;-71
2022/09/14 01:00:31;;;;;;;8.33;1.73;;;15.10;99.90;;;;;;5118056;28;20784;-72
2022/09/14 01:02:58;;;;;;;7.10;2.20;;;15.10;99.90;;;;;;5117110;28;20794;-71
2022/09/14 01:05:35;;;;;;;6.13;1.87;;;15.10;99.90;;;;;;5117520;28;20452;-71
2022/09/14 01:08:16;;;;;;;3.80;1.73;;;15.00;99.90;;;;;;5117104;28;20479;-71
2022/09/14 01:11:07;;;;;;;4.40;1.60;;;15.00;99.90;;;;;;5117325;28;20469;-71
2022/09/14 01:13:42;;;;;;;3.40;1.87;;;15.00;99.90;;;;;;5117866;28;20440;-71
2022/09/14 01:16:26;;;;;;;3.73;1.40;;;15.00;99.90;;;;;;5117313;28;20464;-71
2022/09/14 01:18:57;;;;;;;5.30;1.50;;;15.00;99.90;;;;;;5117316;28;20535;-70
2022/09/14 01:21:26;;;;;;;3.47;1.83;;;14.90;99.90;;;;;;5117918;28;20532;-71
2022/09/14 01:24:00;;;;;;;11.33;2.17;;;14.90;99.90;;;;;;5117253;28;20786;-71
2022/09/14 01:27:00;;;;;;;8.40;2.27;;;14.90;99.90;;;;;;5117006;28;20440;-71
2022/09/14 01:29:33;;;;;;;6.43;1.83;;;14.90;99.90;;;;;;5054722;28;20455;-71
2022/09/14 01:32:06;;;;;;;3.23;1.83;;;14.80;99.90;;;;;;5054668;28;20487;-70
2022/09/14 01:34:38;;;;;;;5.87;2.27;;;14.80;99.90;;;;;;5054411;28;20447;-70
2022/09/14 01:37:11;;;;;;;6.40;1.40;;;14.80;99.90;;;;;;5054320;28;20758;-70
2022/09/14 01:39:42;;;;;;;6.03;1.67;;;14.80;99.90;;;;;;5054184;28;20538;-70
2022/09/14 01:42:10;;;;;;;3.47;1.60;;;14.80;99.90;;;;;;5054040;28;20439;-70
2022/09/14 01:44:42;;;;;;;8.40;1.77;;;14.80;99.90;;;;;;5054090;28;20451;-70
2022/09/14 01:47:13;;;;;;;5.10;2.17;;;14.80;99.90;;;;;;5054164;28;20459;-71
2022/09/14 01:49:44;;;;;;;5.93;2.43;;;14.70;99.90;;;;;;5053940;28;20453;-71
2022/09/14 01:52:15;;;;;;;2.77;2.17;;;14.70;99.90;;;;;;5052854;28;20618;-71
2022/09/14 01:54:46;;;;;;;8.10;2.60;;;14.70;99.90;;;;;;5053955;28;20467;-71
2022/09/14 01:57:18;;;;;;;6.90;2.13;;;14.70;99.90;;;;;;5053854;28;20454;-71
2022/09/14 01:59:49;;;;;;;5.43;2.50;;;14.80;99.90;;;;;;5053810;28;20461;-71
2022/09/14 02:02:19;;;;;;;6.77;2.40;;;14.70;99.90;;;;;;5053582;28;20451;-71
2022/09/14 02:04:50;;;;;;;7.60;2.60;;;14.80;99.90;;;;;;5053662;28;20469;-71
2022/09/14 02:07:18;;;;;;;5.23;2.10;;;14.80;99.90;;;;;;5101783;28;20757;-71
2022/09/14 02:09:46;;;;;;;6.07;2.10;;;14.70;99.90;;;;;;5116105;28;20451;-71
2022/09/14 02:12:14;;;;;;;5.60;1.90;;;14.70;99.90;;;;;;5115981;28;20567;-72
2022/09/14 02:14:42;;;;;;;5.40;1.83;;;14.70;99.90;;;;;;5116352;28;20800;-71
2022/09/14 02:17:11;;;;;;;4.80;2.20;;;14.80;99.90;;;;;;5115791;28;20531;-71
2022/09/14 02:19:49;;;;;;;5.63;2.30;;;14.80;99.90;;;;;;5115700;28;20912;-71
2022/09/14 02:22:16;;;;;;;5.97;2.47;;;14.70;99.90;;;;;;5116248;28;20822;-71
2022/09/14 02:24:43;;;;;;;6.03;2.00;;;14.70;99.90;;;;;;5115881;28;20462;-71
2022/09/14 02:27:10;;;;;;;7.00;2.40;;;14.80;99.90;;;;;;5115873;28;20456;-71
2022/09/14 02:29:37;;;;;;;13.40;2.30;;;14.80;99.90;;;;;;5116034;28;20544;-71
2022/09/14 02:32:15;;;;;;;7.33;2.70;;;14.80;99.90;;;;;;5116338;28;20563;-71
2022/09/14 02:34:52;;;;;;;5.20;2.07;;;14.80;99.90;;;;;;5118752;28;20901;-71
2022/09/14 02:37:24;;;;;;;10.60;2.30;;;14.70;99.90;;;;;;5117749;28;20440;-71
2022/09/14 02:40:00;;;;;;;10.40;2.43;;;14.70;99.90;;;;;;5116412;28;20451;-71
2022/09/14 02:42:37;;;;;;;10.40;2.60;;;14.70;99.90;;;;;;5116293;28;20449;-71
2022/09/14 02:45:10;;;;;;;4.80;2.00;;;14.70;99.90;;;;;;5115983;28;20510;-71
2022/09/14 02:47:46;;;;;;;5.83;2.20;;;14.60;99.90;;;;;;5116379;28;20521;-71
2022/09/14 02:50:20;;;;;;;4.50;2.37;;;14.70;99.90;;;;;;5115890;28;20451;-71
2022/09/14 02:52:54;;;;;;;3.43;2.53;;;14.60;99.90;;;;;;5116222;28;20558;-71
2022/09/14 02:55:23;;;;;;;5.00;2.10;;;14.60;99.90;;;;;;5116179;28;20452;-71
2022/09/14 02:58:01;;;;;;;7.53;2.70;;;14.60;99.90;;;;;;5115960;28;20527;-71
2022/09/14 03:00:30;;;;;;;6.20;2.60;;;14.60;99.90;;;;;;5115468;28;20487;-71
2022/09/14 03:02:58;;;;;;;6.57;2.90;;;14.60;99.90;;;;;;5115538;28;20452;-71
2022/09/14 03:05:26;;;;;;;10.43;2.30;;;14.50;99.90;;;;;;5115914;28;20452;-71
2022/09/14 03:07:52;;;;;;;12.30;2.67;;;14.50;99.90;;;;;;5115891;28;20512;-71
2022/09/14 03:10:19;;;;;;;7.17;2.80;;;14.50;99.90;;;;;;5115877;28;20463;-72
2022/09/14 03:12:46;;;;;;;5.30;1.80;;;14.50;99.90;;;;;;5116857;28;20476;-71
2022/09/14 03:15:13;;;;;;;5.50;2.40;;;14.50;99.90;;;;;;5116033;28;20529;-69
2022/09/14 03:17:40;;;;;;;5.40;2.83;;;14.40;99.90;;;;;;5115691;28;20457;-70
2022/09/14 03:20:10;;;;;;;9.43;2.50;;;14.40;99.90;;;;;;5116877;28;20458;-70
2022/09/14 03:22:37;;;;;;;5.00;1.73;;;14.40;99.90;;;;;;5116041;28;20456;-71
2022/09/14 03:25:04;;;;;;;10.33;2.70;;;14.40;99.90;;;;;;5116277;28;20549;-70
2022/09/14 03:27:31;;;;;;;6.03;2.37;;;14.40;99.90;;;;;;5115428;28;20535;-70
2022/09/14 03:29:57;;;;;;;5.03;2.13;;;14.30;99.90;;;;;;5115983;28;20495;-70
2022/09/14 03:32:24;;;;;;;6.70;2.70;;;14.30;99.90;;;;;;5115575;28;20885;-70
2022/09/14 03:34:51;;;;;;;6.77;2.37;;;14.30;99.90;;;;;;5116242;28;20556;-70
2022/09/14 03:37:19;;;;;;;7.23;2.20;;;14.30;99.90;;;;;;5115958;28;20462;-71
2022/09/14 03:39:46;;;;;;;6.00;2.40;;;14.30;99.90;;;;;;5115684;28;20841;-70
2022/09/14 03:42:13;;;;;;;4.80;2.40;;;14.30;99.90;;;;;;5115784;28;20459;-70
2022/09/14 03:44:40;;;;;;;7.37;2.70;;;14.30;99.90;;;;;;5115993;28;20456;-70
2022/09/14 03:47:07;;;;;;;9.67;2.77;;;14.30;99.90;;;;;;5116353;28;20515;-70
2022/09/14 03:49:34;;;;;;;6.97;2.10;;;14.20;99.90;;;;;;5115694;28;20453;-70
2022/09/14 03:52:02;;;;;;;4.90;2.40;;;14.20;99.90;;;;;;5115680;28;20472;-71
2022/09/14 03:54:30;;;;;;;6.43;2.70;;;14.20;99.90;;;;;;5115500;28;20985;-71
2022/09/14 03:56:57;;;;;;;4.70;2.60;;;14.20;99.90;;;;;;5116352;28;20905;-71
2022/09/14 03:59:24;;;;;;;8.57;3.20;;;14.20;99.90;;;;;;5115656;28;20526;-71
2022/09/14 04:01:51;;;;;;;8.17;3.27;;;14.20;99.90;;;;;;5114806;28;20448;-72
2022/09/14 04:04:18;;;;;;;5.93;2.77;;;14.10;99.90;;;;;;5115599;28;20927;-72
2022/09/14 04:06:44;;;;;;;9.60;3.37;;;14.10;99.90;;;;;;5114518;28;20462;-72
2022/09/14 04:09:11;;;;;;;14.40;3.00;;;14.10;99.90;;;;;;5114339;28;20482;-70
2022/09/14 04:11:41;;;;;;;5.63;2.63;;;14.10;99.90;;;;;;5114442;28;20552;-72
2022/09/14 04:14:08;;;;;;;8.97;5.03;;;14.10;99.90;;;;;;5114875;28;20493;-72
2022/09/14 04:16:35;;;;;;;4.60;2.60;;;14.10;99.90;;;;;;5117072;28;20452;-71
2022/09/14 04:19:02;;;;;;;7.37;2.97;;;14.10;99.90;;;;;;5118588;28;20456;-72
2022/09/14 04:21:29;;;;;;;5.40;2.63;;;14.10;99.90;;;;;;5112302;28;20464;-72
2022/09/14 04:23:57;;;;;;;5.40;2.93;;;14.10;99.90;;;;;;5098482;28;20941;-71
2022/09/14 04:26:26;;;;;;;4.70;3.80;;;14.10;99.90;;;;;;5097474;28;20485;-71
2022/09/14 04:28:55;;;;;;;8.10;3.30;;;14.10;99.90;;;;;;5098090;28;20743;-71
2022/09/14 04:31:23;;;;;;;6.13;2.83;;;14.10;99.90;;;;;;5097467;28;20530;-71
2022/09/14 04:33:50;;;;;;;6.60;2.80;;;14.20;99.90;;;;;;5098310;28;20969;-69
2022/09/14 04:36:18;;;;;;;7.30;3.10;;;14.20;99.90;;;;;;5098026;28;20472;-71
2022/09/14 04:38:46;;;;;;;5.23;2.33;;;14.20;99.90;;;;;;5097897;28;20485;-71
2022/09/14 04:41:15;;;;;;;8.80;3.30;;;14.30;99.90;;;;;;5098083;28;20846;-71
2022/09/14 04:43:42;;;;;;;5.63;3.43;;;14.30;99.90;;;;;;5097668;28;20459;-71
2022/09/14 04:46:14;;;;;;;5.40;3.23;;;14.40;99.90;;;;;;5098425;28;20464;-71
2022/09/14 04:48:41;;;;;;;8.13;3.57;;;14.40;99.90;;;;;;5098103;28;20912;-70
2022/09/14 04:51:12;;;;;;;7.60;3.17;;;14.40;99.90;;;;;;5099309;28;20453;-71
2022/09/14 04:53:39;;;;;;;8.90;3.30;;;14.30;99.90;;;;;;5098633;28;20461;-71
2022/09/14 04:56:08;;;;;;;9.93;3.40;;;14.30;99.90;;;;;;5098084;28;20453;-71
2022/09/14 04:58:38;;;;;;;7.20;3.60;;;14.30;99.90;;;;;;5098565;28;20763;-71
2022/09/14 05:01:07;;;;;;;5.47;3.10;;;14.40;99.90;;;;;;5097352;28;20485;-71
2022/09/14 05:03:37;;;;;;;10.60;3.93;;;14.40;99.90;;;;;;5116630;28;20456;-71
2022/09/14 05:06:06;;;;;;;7.80;3.40;;;14.40;99.90;;;;;;5094559;28;20457;-71
2022/09/14 05:08:35;;;;;;;8.97;3.00;;;14.40;99.90;;;;;;5098144;28;20564;-71
2022/09/14 05:11:02;;;;;;;5.23;2.90;;;14.40;99.90;;;;;;5098251;28;20457;-71
2022/09/14 05:13:29;;;;;;;8.77;3.07;;;14.30;99.90;;;;;;5098838;28;20560;-71
2022/09/14 05:16:04;;;;;;;8.20;3.00;;;14.30;99.90;;;;;;5098885;28;20516;-71
2022/09/14 05:18:30;;;;;;;7.87;3.00;;;14.30;99.90;;;;;;5098610;28;20436;-71
2022/09/14 05:21:01;;;;;;;5.13;3.10;;;14.30;99.90;;;;;;5098423;28;20453;-71
2022/09/14 05:23:28;;;;;;;7.80;3.30;;;14.30;99.90;;;;;;5098117;28;20456;-71
2022/09/14 05:25:55;;;;;;;9.83;3.07;;;14.30;99.90;;;;;;5098545;28;20453;-71
2022/09/14 05:28:22;;;;;;;5.97;2.60;;;14.30;99.90;;;;;;5097277;28;20464;-71
2022/09/14 05:30:48;;;;;;;4.67;3.00;;;14.40;99.90;;;;;;5097625;28;20485;-71
2022/09/14 05:33:15;;;;;;;12.43;3.00;;;14.40;99.90;;;;;;5096878;28;20483;-71
2022/09/14 05:35:42;;;;;;;5.83;3.00;;;14.30;99.90;;;;;;5097479;28;20985;-71
2022/09/14 05:38:10;;;;;;;4.00;3.37;;;14.30;99.90;;;;;;5097925;28;20453;-71
2022/09/14 05:40:37;;;;;;;6.00;3.73;;;14.30;99.90;;;;;;5096863;28;20453;-71
2022/09/14 05:43:04;;;;;;;7.83;2.67;;;14.30;99.90;;;;;;5097527;28;20453;-71
2022/09/14 05:45:31;;;;;;;6.57;2.80;;;14.30;99.90;;;;;;5097515;28;20934;-71
2022/09/14 05:48:00;;;;;;;4.67;2.70;;;14.30;99.90;;;;;;5098610;28;20468;-71
2022/09/14 05:50:27;;;;;;;7.50;2.70;;;14.30;99.90;;;;;;5097319;28;20453;-71
2022/09/14 05:52:55;;;;;;;11.27;3.17;;;14.30;99.90;;;;;;5097700;28;20508;-71
2022/09/14 05:55:23;;;;;;;6.63;3.00;;;14.30;99.90;;;;;;5098053;28;20509;-71
2022/09/14 05:57:50;;;;;;;14.10;3.00;;;14.30;99.90;;;;;;5097085;28;20464;-71
2022/09/14 06:00:17;;;;;;;6.30;3.03;;;14.30;99.90;;;;;;5097499;28;20777;-71
2022/09/14 06:02:46;;;;;;;8.37;3.07;;;14.20;99.90;;;;;;5099749;28;20497;-71
2022/09/14 06:05:13;;;;;;;11.30;3.53;;;14.30;99.90;;;;;;5116829;28;20452;-71
2022/09/14 06:07:40;;;;;;;6.87;3.00;;;14.20;99.90;;;;;;5117491;28;20982;-71
2022/09/14 06:10:08;;;;;;;3.50;3.07;;;14.20;99.90;;;;;;5119629;28;20527;-71
2022/09/14 06:12:36;;;;;;;6.93;3.47;;;14.30;99.90;;;;;;5117461;28;20793;-71
2022/09/14 06:15:03;;;;;;;5.57;2.97;;;14.30;99.90;;;;;;5116293;28;20932;-71
2022/09/14 06:17:30;;;;;;;9.60;4.10;;;14.20;99.90;;;;;;5117523;28;20543;-71
2022/09/14 06:19:57;;;;;;;7.10;2.80;;;14.30;99.90;;;;;;5116831;28;20493;-71
2022/09/14 06:22:24;;;;;;;7.37;3.00;;;14.30;99.90;;;;;;5116997;28;20514;-71
2022/09/14 06:24:51;;;;;;;6.80;2.90;;;14.30;99.90;;;;;;5117113;28;20543;-71
2022/09/14 06:27:17;;;;;;;10.30;3.30;;;14.40;99.90;;;;;;5117094;28;20492;-71
2022/09/14 06:29:50;;;;;;;5.73;3.13;;;14.40;99.90;;;;;;5116344;28;21000;-71
2022/09/14 06:32:17;;;;;;;12.60;3.50;;;14.50;99.90;;;;;;5116504;28;20437;-71
2022/09/14 06:34:44;;;;;;;8.00;3.67;;;14.50;99.90;;;;;;5117196;28;20779;-71
2022/09/14 06:37:11;;;;;;;5.57;3.53;;;14.60;99.90;;;;;;5116338;28;20453;-71
2022/09/14 06:39:38;;;;;;;6.87;3.77;;;14.60;99.90;;;;;;5115219;28;20542;-71
2022/09/14 06:42:05;;;;;;;9.73;3.93;;;14.70;99.90;;;;;;5110311;28;20453;-71
2022/09/14 06:44:32;;;;;;;5.20;3.30;;;14.80;99.90;;;;;;5095856;28;20536;-71
2022/09/14 06:47:00;;;;;;;7.70;3.60;;;14.80;99.90;;;;;;5095842;28;20453;-71
2022/09/14 06:49:27;;;;;;;7.77;3.03;;;14.90;99.90;;;;;;5094947;28;20464;-70
2022/09/14 06:51:56;;;;;;;6.13;2.80;;;14.90;99.90;;;;;;5094801;28;20457;-70
2022/09/14 06:54:24;;;;;;;6.70;3.17;;;15.00;99.90;;;;;;5094826;28;20590;-70
2022/09/14 06:56:50;;;;;;;5.00;2.77;;;15.10;99.90;;;;;;5094527;28;20540;-70
2022/09/14 06:59:18;;;;;;;7.33;3.30;;;15.20;99.90;;;;;;5094196;28;20537;-70
2022/09/14 07:01:45;;;;;;;7.30;2.50;;;15.30;99.90;;;;;;5094371;28;20886;-70
2022/09/14 07:04:14;;;;;;;5.67;2.67;;;15.40;99.90;;;;;;5094580;28;20453;-70
2022/09/14 07:06:45;;;;;;;7.53;2.70;;;15.40;99.90;;;;;;5093302;28;20453;-70
2022/09/14 07:09:12;;;;;;;10.07;2.67;;;15.50;99.90;;;;;;5093928;28;20788;-70
2022/09/14 07:11:40;;;;;;;9.60;3.20;;;15.60;99.90;;;;;;5094461;28;20939;-70
2022/09/14 07:14:07;;;;;;;9.07;2.83;;;15.70;99.90;;;;;;5094683;28;20477;-70
2022/09/14 07:16:36;;;;;;;5.23;2.30;;;15.70;99.90;;;;;;5094425;28;20463;-70
2022/09/14 07:19:05;;;;;;;3.47;1.97;;;15.70;99.90;;;;;;5094368;28;20776;-70
2022/09/14 07:21:34;;;;;;;11.30;2.20;;;15.60;99.90;;;;;;5094321;28;20781;-70
2022/09/14 07:24:01;;;;;;;8.07;2.60;;;15.50;99.90;;;;;;5094263;28;20804;-70
2022/09/14 07:26:29;;;;;;;6.13;2.87;;;15.50;99.90;;;;;;5093704;28;20947;-70
2022/09/14 07:28:59;;;;;;;3.00;1.90;;;15.60;99.90;;;;;;5093543;28;20544;-70
2022/09/14 07:31:27;;;;;;;7.00;1.90;;;15.60;99.90;;;;;;5093687;28;20564;-70
2022/09/14 07:33:55;;;;;;;4.67;1.87;;;15.70;99.90;;;;;;5093536;28;20539;-70
2022/09/14 07:36:24;;;;;;;8.10;2.40;;;15.80;99.90;;;;;;5093792;28;20457;-70
2022/09/14 07:38:52;;;;;;;8.00;2.00;;;15.80;99.90;;;;;;5093965;28;20457;-70
2022/09/14 07:41:20;;;;;;;7.37;2.40;;;15.90;99.90;;;;;;5093988;28;20457;-70
2022/09/14 07:43:49;;;;;;;7.50;3.00;;;16.00;99.90;;;;;;5093896;28;20445;-70
2022/09/14 07:46:16;;;;;;;12.23;2.20;;;16.10;99.90;;;;;;5093932;28;20453;-70
2022/09/14 07:48:43;;;;;;;7.90;2.40;;;16.20;99.90;;;;;;5093875;28;20463;-70
2022/09/14 07:51:11;;;;;;;8.33;2.40;;;16.30;99.90;;;;;;5095202;28;20457;-70
2022/09/14 07:53:41;;;;;;;9.10;2.10;;;16.50;99.90;;;;;;5097317;28;20481;-70
2022/09/14 07:56:10;;;;;;;11.40;2.80;;;16.70;99.90;;;;;;5098445;28;20468;-70
2022/09/14 07:58:37;;;;;;;6.27;1.90;;;16.80;99.90;;;;;;5098117;28;20932;-70
2022/09/14 08:01:07;;;;;;;6.93;1.73;;;16.90;99.90;;;;;;5098111;28;20453;-70
2022/09/14 08:03:35;;;;;;;7.87;2.40;;;17.00;99.90;;;;;;5097973;28;20457;-70
2022/09/14 08:06:04;;;;;;;4.40;1.77;;;17.10;99.90;;;;;;5097343;28;20464;-70
2022/09/14 08:08:34;;;;;;;9.60;2.53;;;17.10;99.90;;;;;;5097441;28;20492;-70
2022/09/14 08:11:07;;;;;;;7.80;1.83;;;17.20;99.90;;;;;;5097462;28;20464;-70
2022/09/14 08:13:35;;;;;;;9.20;2.90;;;17.30;99.90;;;;;;5097277;28;20483;-69
2022/09/14 08:16:03;;;;;;;7.63;1.97;;;17.40;99.90;;;;;;5097288;28;20461;-70
2022/09/14 08:18:31;;;;;;;4.40;1.83;;;17.50;99.90;;;;;;5097395;28;20763;-70
2022/09/14 08:21:04;;;;;;;8.67;2.07;;;17.60;99.90;;;;;;5097502;28;20441;-70
2022/09/14 08:23:31;;;;;;;5.60;1.70;;;17.70;99.90;;;;;;5097697;28;20541;-70
2022/09/14 08:26:03;;;;;;;6.00;1.90;;;17.70;99.90;;;;;;5097508;28;20544;-70
2022/09/14 08:28:29;;;;;;;7.63;1.60;;;17.70;99.90;;;;;;5097396;28;20442;-70
2022/09/14 08:31:02;;;;;;;5.70;1.57;;;17.70;99.90;;;;;;5097348;28;20467;-70
2022/09/14 08:33:30;;;;;;;8.97;1.80;;;17.80;99.90;;;;;;5097384;28;20469;-69
2022/09/14 08:35:57;;;;;;;6.77;1.93;;;17.80;99.90;;;;;;5097014;28;20526;-69
2022/09/14 08:38:24;;;;;;;7.47;1.77;;;17.80;99.90;;;;;;5096785;28;20454;-69
2022/09/14 08:40:51;;;;;;;4.50;1.50;;;17.80;99.90;;;;;;5097264;28;20882;-70
2022/09/14 08:43:19;;;;;;;4.67;1.70;;;17.90;99.90;;;;;;5097052;28;20473;-70
2022/09/14 08:45:48;;;;;;;4.63;2.00;;;18.10;99.90;;;;;;5097150;28;20481;-70
2022/09/14 08:48:22;;;;;;;5.63;2.20;;;18.30;99.90;;;;;;5096977;28;20457;-70
2022/09/14 08:50:52;;;;;;;5.17;1.63;;;18.40;99.90;;;;;;5096897;28;20452;-70
2022/09/14 08:53:21;;;;;;;7.40;2.07;;;18.50;99.90;;;;;;5096804;28;20937;-70
2022/09/14 08:55:53;;;;;;;4.50;2.43;;;18.60;99.90;;;;;;5097069;28;20462;-70
2022/09/14 08:58:30;;;;;;;6.50;1.80;;;18.60;99.90;;;;;;5096933;28;20455;-70
2022/09/14 09:01:02;;;;;;;4.00;1.77;;;18.70;99.90;;;;;;5096599;28;20912;-70
2022/09/14 09:04:05;;;;;;;7.37;1.77;;;18.80;99.90;;;;;;5096662;28;20962;-69
2022/09/14 09:06:39;;;;;;;7.87;2.17;;;18.80;99.90;;;;;;5096915;28;20991;-70
2022/09/14 09:09:15;;;;;;;3.07;1.50;;;18.70;99.90;;;;;;5096744;28;20477;-69
2022/09/14 09:11:45;;;;;;;7.93;2.33;;;18.60;99.90;;;;;;5096930;28;20438;-68
2022/09/14 09:14:18;;;;;;;5.10;1.60;;;18.50;99.90;;;;;;5096903;28;20820;-70
2022/09/14 09:16:50;;;;;;;10.87;2.93;;;18.50;99.90;;;;;;5096693;28;20778;-71
2022/09/14 09:19:23;;;;;;;11.67;3.00;;;18.50;99.90;;;;;;5096353;28;20484;-71
2022/09/14 09:21:51;;;;;;;6.77;1.77;;;18.60;99.90;;;;;;5096753;28;20524;-70
2022/09/14 09:24:27;;;;;;;4.60;1.60;;;18.60;99.90;;;;;;5096502;28;20449;-71
2022/09/14 09:26:53;;;;;;;22.70;4.90;;;18.70;99.90;;;;;;5096628;28;20445;-71
2022/09/14 09:29:20;;;;;;;7.17;1.57;;;18.70;99.90;;;;;;5096724;28;20548;-70
2022/09/14 09:31:51;;;;;;;7.17;2.10;;;18.70;99.90;;;;;;5097308;28;20453;-70
2022/09/14 09:34:25;;;;;;;8.07;2.07;;;18.70;99.90;;;;;;5095823;28;20492;-70
2022/09/14 09:36:52;;;;;;;5.60;1.70;;;18.60;99.90;;;;;;5096358;28;20484;-70
2022/09/14 09:39:19;;;;;;;6.63;2.30;;;18.60;99.90;;;;;;5096230;28;20461;-71
2022/09/14 09:41:52;;;;;;;4.47;1.50;;;18.70;99.90;;;;;;5095928;28;20489;-71
2022/09/14 09:44:19;;;;;;;6.30;1.93;;;18.80;99.90;;;;;;5095615;28;20521;-70
2022/09/14 09:46:49;;;;;;;8.33;1.80;;;18.90;99.90;;;;;;5095790;28;20459;-68
2022/09/14 09:49:20;;;;;;;6.77;2.30;;;18.90;99.90;;;;;;5095883;28;20453;-70
2022/09/14 09:51:48;;;;;;;3.70;1.50;;;18.80;99.90;;;;;;5095708;28;20447;-70
2022/09/14 09:54:30;;;;;;;6.43;1.77;;;18.70;99.90;;;;;;5095632;28;20824;-69
2022/09/14 09:56:59;;;;;;;7.90;1.97;;;18.60;99.90;;;;;;5095584;28;20847;-70
2022/09/14 09:59:34;;;;;;;5.43;1.60;;;18.60;99.90;;;;;;5095585;28;20469;-69
2022/09/14 10:02:22;;;;;;;5.07;1.87;;;18.70;99.90;;;;;;5095705;28;20477;-70
2022/09/14 10:04:59;;;;;;;4.80;1.57;;;18.80;99.90;;;;;;5095279;28;20444;-71
2022/09/14 10:07:27;;;;;;;4.67;1.20;;;18.90;99.90;;;;;;5095210;28;20793;-72
2022/09/14 10:09:59;;;;;;;3.60;1.70;;;19.00;99.90;;;;;;5095169;28;20438;-70
2022/09/14 10:12:26;;;;;;;6.40;2.00;;;19.20;99.90;;;;;;5095080;28;20486;-70
2022/09/14 10:15:15;;;;;;;5.27;2.00;;;19.20;99.90;;;;;;5094434;28;20567;-69
2022/09/14 10:18:03;;;;;;;5.97;2.17;;;19.20;99.90;;;;;;5095036;28;20488;-69
2022/09/14 10:20:31;;;;;;;5.37;1.70;;;19.10;99.90;;;;;;5095494;28;20529;-70
2022/09/14 10:23:19;;;;;;;7.70;2.17;;;19.00;99.90;;;;;;5095185;28;20544;-68
2022/09/14 10:25:47;;;;;;;8.20;1.87;;;18.90;99.90;;;;;;5095848;28;20437;-70
2022/09/14 10:28:22;;;;;;;4.67;1.60;;;19.00;99.90;;;;;;5095139;28;20464;-70
2022/09/14 10:30:56;;;;;;;6.40;1.83;;;19.00;99.90;;;;;;5095094;28;20444;-70
2022/09/14 10:33:23;;;;;;;4.23;1.83;;;19.00;99.90;;;;;;5095346;28;20483;-70
2022/09/14 10:35:58;;;;;;;6.60;1.77;;;19.20;99.90;;;;;;5095250;28;20547;-70
2022/09/14 10:38:32;;;;;;;6.77;2.00;;;19.30;99.90;;;;;;5094995;28;20441;-70
2022/09/14 10:41:09;;;;;;;5.20;2.00;;;19.30;99.90;;;;;;5095109;28;20959;-70
2022/09/14 10:44:01;;;;;;;4.87;1.50;;;19.50;99.90;;;;;;5095387;28;20448;-70
2022/09/14 10:46:30;;;;;;;8.40;1.60;;;19.60;99.90;;;;;;5033356;28;20456;-69
2022/09/14 10:49:24;;;;;;;2.80;1.20;;;19.60;99.90;;;;;;5032924;28;20542;-70
2022/09/14 10:52:00;;;;;;;6.37;1.50;;;19.60;99.90;;;;;;5032327;28;20488;-69
2022/09/14 10:54:53;;;;;;;7.33;2.23;;;19.70;99.90;;;;;;5032569;28;20464;-69
2022/09/14 10:57:28;;;;;;;5.73;1.40;;;19.80;99.90;;;;;;5032097;28;20538;-69
2022/09/14 11:00:01;;;;;;;3.20;1.40;;;19.80;99.90;;;;;;5031955;28;20450;-69
2022/09/14 11:03:00;;;;;;;5.03;2.00;;;19.90;99.90;;;;;;5033222;28;20885;-69
2022/09/14 11:05:33;;;;;;;5.33;1.20;;;20.00;99.90;;;;;;4992552;28;20528;-70
2022/09/14 11:08:21;;;;;;;8.97;1.90;;;20.20;99.90;;;;;;4992733;28;20489;-69
2022/09/14 11:11:15;;;;;;;4.03;1.63;;;20.30;99.90;;;;;;4993165;28;20471;-69
2022/09/14 11:13:52;;;;;;;6.27;2.00;;;20.50;99.90;;;;;;4993007;28;20870;-69
2022/09/14 11:16:31;;;;;;;4.30;1.30;;;20.40;99.90;;;;;;4993961;28;20454;-70
2022/09/14 11:19:06;;;;;;;4.20;1.47;;;20.50;99.90;;;;;;4994949;28;20505;-70
2022/09/14 11:21:40;;;;;;;4.80;1.50;;;20.50;99.90;;;;;;4994229;28;20872;-70
2022/09/14 11:24:18;;;;;;;5.47;2.10;;;20.60;99.90;;;;;;5034951;28;20538;-71
2022/09/14 11:26:53;;;;;;;6.20;1.47;;;20.80;99.90;;;;;;5055637;28;20459;-70
2022/09/14 11:29:25;;;;;;;3.40;1.50;;;20.80;99.90;;;;;;5056042;28;20446;-70
2022/09/14 11:32:06;;;;;;;6.50;1.93;;;20.80;99.90;;;;;;5055917;28;20443;-70
2022/09/14 11:34:37;;;;;;;3.90;1.30;;;20.90;99.90;;;;;;5056379;28;20458;-69
2022/09/14 11:37:08;;;;;;;5.23;1.60;;;20.90;99.90;;;;;;5055722;28;20473;-69
2022/09/14 11:39:41;;;;;;;5.20;1.70;;;20.90;99.90;;;;;;5055937;28;20460;-69
2022/09/14 11:42:14;;;;;;;3.87;2.13;;;21.10;99.90;;;;;;5072961;28;20457;-70
2022/09/14 11:44:43;;;;;;;4.97;2.17;;;21.10;99.90;;;;;;5098511;28;20438;-69
2022/09/14 11:47:16;;;;;;;5.03;1.50;;;21.10;99.90;;;;;;5098554;28;20449;-69
2022/09/14 11:49:55;;;;;;;2.83;1.10;;;21.30;99.90;;;;;;5098336;28;20452;-69
2022/09/14 11:52:23;;;;;;;2.33;1.40;;;21.60;99.90;;;;;;5098255;28;20441;-69
2022/09/14 11:54:52;;;;;;;2.50;1.30;;;21.80;99.90;;;;;;5097801;28;20487;-70
2022/09/14 11:57:21;;;;;;;2.13;1.17;;;21.80;99.90;;;;;;5098152;28;20543;-69
2022/09/14 11:59:53;;;;;;;4.20;1.73;;;21.70;99.90;;;;;;5097693;28;21005;-69
2022/09/14 12:02:58;;;;;;;2.83;1.70;;;21.80;99.90;;;;;;5097743;28;20535;-69
2022/09/14 12:05:35;;;;;;;7.90;1.60;;;21.70;99.90;;;;;;5097425;28;20429;-69
2022/09/14 12:08:26;;;;;;;5.10;1.47;;;21.20;99.90;;;;;;5097848;28;20459;-69
2022/09/14 12:11:22;;;;;;;9.80;2.00;;;20.80;99.90;;;;;;5035539;28;20487;-69
2022/09/14 12:13:49;;;;;;;6.37;1.80;;;20.70;99.90;;;;;;5035685;28;20448;-70
2022/09/14 12:16:16;;;;;;;5.47;1.60;;;20.80;99.90;;;;;;5035485;28;20546;-69
2022/09/14 12:18:46;;;;;;;3.73;1.67;;;21.00;99.90;;;;;;5036505;28;20452;-69
2022/09/14 12:21:21;;;;;;;6.00;2.20;;;21.20;99.90;;;;;;5035826;28;20459;-69
2022/09/14 12:23:52;;;;;;;5.17;1.70;;;21.50;99.90;;;;;;5035428;28;20454;-69
2022/09/14 12:26:38;;;;;;;5.10;1.70;;;21.60;99.90;;;;;;5035649;28;20544;-69
2022/09/14 12:29:24;;;;;;;6.30;1.80;;;21.30;99.90;;;;;;5035533;28;20460;-69
2022/09/14 12:32:05;;;;;;;6.97;1.77;;;21.20;99.90;;;;;;5035633;28;20440;-69
2022/09/14 12:34:33;;;;;;;6.83;1.73;;;21.00;99.90;;;;;;5035538;28;20510;-70
2022/09/14 12:37:29;;;;;;;6.73;1.67;;;20.90;99.90;;;;;;5034421;28;20476;-69
2022/09/14 12:40:36;;;;;;;6.83;1.73;;;20.70;99.90;;;;;;4995942;28;20545;-68
2022/09/14 12:43:38;;;;;;;7.40;1.73;;;20.40;99.90;;;;;;4938230;29;20444;-68
2022/09/14 12:46:10;;;;;;;5.13;1.90;;;20.20;99.90;;;;;;4882591;29;20451;-69
2022/09/14 12:48:57;;;;;;;4.43;2.03;;;20.10;99.90;;;;;;4910079;29;20471;-69
2022/09/14 12:51:36;;;;;;;3.60;1.40;;;19.80;99.90;;;;;;4918888;29;20789;-69
2022/09/14 12:54:14;;;;;;;5.07;1.80;;;19.80;99.90;;;;;;4918408;29;20445;-69
2022/09/14 12:56:48;;;;;;;4.57;2.23;;;20.00;99.90;;;;;;4918345;29;20489;-69
2022/09/14 12:59:21;;;;;;;4.57;1.60;;;20.20;99.90;;;;;;4918583;29;20552;-69
2022/09/14 13:01:55;;;;;;;3.87;1.50;;;20.50;99.90;;;;;;4918471;29;20544;-69
2022/09/14 13:04:26;;;;;;;3.43;1.43;;;21.10;99.90;;;;;;4918517;29;20867;-69
2022/09/14 13:06:56;;;;;;;4.60;2.17;;;22.30;99.90;;;;;;4918328;29;20450;-69